Time;durP1;ratioP1;P1;durP2;ratioP2;P2;SDS_P1;SDS_P2;PMS_P1;PMS_P2;Temp;Humidity;BMP_temperature;BMP_pressure;BME280_temperature;BME280_humidity;BME280_pressure;Samples;Min_cycle;Max_cycle;Signal;HPM_P1;HPM_P2
2023/06/12 00:06:09;;;;;;;;;22.50;22.50;;;;;;;;171464;28;279083423;-78
2023/06/12 00:15:26;;;;;;;;;11.00;11.00;;;;;;;;2578061;28;234070972;-78
2023/06/12 00:24:27;;;;;;;;;17.00;17.00;;;;;;;;2;279081550;279081550;-78
2023/06/12 00:32:24;;;;;;;;;34.50;26.00;;;;;;;;2;234072345;234072345;-78
2023/06/12 00:41:25;;;;;;;;;24.00;15.50;;;;;;;;2;279083595;279083595;-79
2023/06/12 00:49:22;;;;;;;;;28.00;16.00;;;;;;;;2;234069102;234069102;-79
2023/06/12 00:58:02;;;;;;;;;8.00;8.00;;;;;;;;2;279081234;279081234;-81
2023/06/12 01:00:28;;;;;;;;;20.00;18.25;;;;;;;;4950556;28;28354;-82
2023/06/12 01:02:55;;;;;;;;;21.25;20.25;;;;;;;;4952452;28;48094;-81
2023/06/12 01:09:54;;;;;;;;;;;;;;;;;;2014840;28;277887904;-80
2023/06/12 01:12:20;;;;;;;;;20.25;17.50;;;;;;;;4818302;28;3838672;-82
2023/06/12 01:14:45;;;;;;;;;24.00;23.50;;;;;;;;4953519;28;28479;-80
2023/06/12 01:17:11;;;;;;;;;29.00;27.25;;;;;;;;4533211;28;12636679;-81
2023/06/12 01:19:36;;;;;;;;;25.00;23.00;;;;;;;;4972881;28;28670;-81
2023/06/12 01:22:03;;;;;;;;;27.50;25.50;;;;;;;;4973055;28;28446;-81
2023/06/12 01:24:29;;;;;;;;;19.75;19.75;;;;;;;;4650748;28;9321615;-81
2023/06/12 01:27:04;;;;;;;;;34.50;28.50;;;;;;;;4453973;28;21063501;-81
2023/06/12 01:29:29;;;;;;;;;27.50;25.00;;;;;;;;4550577;28;9818805;-81
2023/06/12 01:32:03;;;;;;;;;28.25;27.25;;;;;;;;4495172;28;13967576;-81
2023/06/12 01:34:50;;;;;;;;;25.75;25.75;;;;;;;;4972200;28;28502;-82
2023/06/12 01:37:21;;;;;;;;;24.25;22.75;;;;;;;;4925111;28;1378162;-81
2023/06/12 01:39:53;;;;;;;;;27.00;26.33;;;;;;;;4586690;28;10334246;-81
2023/06/12 01:42:19;;;;;;;;;32.50;27.00;;;;;;;;4961536;28;28630;-80
2023/06/12 01:44:44;;;;;;;;;29.50;25.50;;;;;;;;4952388;28;28452;-81
2023/06/12 01:47:10;;;;;;;;;19.50;19.50;;;;;;;;4936429;28;493490;-80
2023/06/12 01:49:35;;;;;;;;;29.00;27.75;;;;;;;;4952605;28;30275;-83
2023/06/12 01:52:00;;;;;;;;;28.75;27.75;;;;;;;;4955378;28;29173;-82
2023/06/12 01:54:26;;;;;;;;;26.80;26.40;;;;;;;;3358607;28;31715484;-83
2023/06/12 02:03:28;;;;;;;;;;;;;;;;;;1576874;28;261079649;-81
2023/06/12 02:12:11;;;;;;;;;23.50;23.50;;;;;;;;2;243075173;243075173;-83
2023/06/12 02:16:03;;;;;;;;;24.00;24.00;;;;;;;;2;231674028;231674028;-81
2023/06/12 02:18:28;;;;;;;;;17.75;17.75;;;;;;;;4967904;28;28293;-82
2023/06/12 02:22:17;;;;;;;;;;;;;;;;;;3573144;28;72042355;-81
2023/06/12 02:24:42;;;;;;;;;18.00;16.50;;;;;;;;4968213;28;28974;-79
2023/06/12 02:27:07;;;;;;;;;23.50;23.25;;;;;;;;4970984;28;28420;-79
2023/06/12 02:29:32;;;;;;;;;;;;;;;;;;3169098;28;52600146;-81
2023/06/12 02:31:58;;;;;;;;;23.60;23.40;;;;;;;;4971385;28;28326;-81
2023/06/12 02:42:52;;;;;;;;;26.00;26.00;;;;;;;;4534978;28;243073234;-80
2023/06/12 02:45:18;;;;;;;;;35.50;32.25;;;;;;;;376387;28;133944259;-81
2023/06/12 02:47:43;;;;;;;;;26.25;24.50;;;;;;;;4971073;28;28444;-79
2023/06/12 02:50:08;;;;;;;;;25.25;25.25;;;;;;;;4970596;28;28516;-80
2023/06/12 02:52:34;;;;;;;;;23.50;21.75;;;;;;;;4765394;28;3146709;-81
2023/06/12 02:54:59;;;;;;;;;24.00;23.00;;;;;;;;4245739;28;21145163;-81
2023/06/12 02:57:24;;;;;;;;;25.00;24.00;;;;;;;;4970668;28;28430;-80
2023/06/12 02:59:50;;;;;;;;;23.75;22.75;;;;;;;;4971440;28;28339;-86
2023/06/12 03:05:36;;;;;;;;;;;;;;;;;;3538995;28;242950927;-86
2023/06/12 03:08:02;;;;;;;;;19.00;16.25;;;;;;;;4968395;28;33719;-87
2023/06/12 03:10:27;;;;;;;;;22.75;21.25;;;;;;;;4970890;28;28354;-87
2023/06/12 03:12:53;;;;;;;;;24.00;20.00;;;;;;;;4789866;28;5249202;-86
2023/06/12 03:21:58;;;;;;;;;;;;;;;;;;2331214;28;234069116;-81
2023/06/12 03:26:59;;;;;;;;;17.00;17.00;;;;;;;;2;279086548;279086548;-81
2023/06/12 03:29:24;;;;;;;;;20.75;18.75;;;;;;;;4970315;28;28547;-82
2023/06/12 03:31:53;;;;;;;;;19.75;18.00;;;;;;;;4974005;28;28496;-82
2023/06/12 03:34:18;;;;;;;;;13.75;13.50;;;;;;;;4972532;28;28652;-81
2023/06/12 03:36:44;;;;;;;;;21.75;19.50;;;;;;;;4974013;28;28446;-81
2023/06/12 03:39:09;;;;;;;;;20.00;18.25;;;;;;;;4971526;28;91439;-82
2023/06/12 03:41:34;;;;;;;;;21.00;19.25;;;;;;;;4970922;28;28353;-81
2023/06/12 03:44:00;;;;;;;;;18.50;17.50;;;;;;;;4953937;28;30470;-79
2023/06/12 03:46:25;;;;;;;;;24.00;21.50;;;;;;;;4837136;28;2578818;-81
2023/06/12 03:48:51;;;;;;;;;20.00;18.50;;;;;;;;4903575;28;1047586;-79
2023/06/12 03:51:16;;;;;;;;;16.00;14.25;;;;;;;;4149635;28;23512779;-82
2023/06/12 03:53:41;;;;;;;;;18.00;17.75;;;;;;;;4846109;28;3181843;-82
2023/06/12 03:56:07;;;;;;;;;17.00;17.00;;;;;;;;4954182;28;28337;-81
2023/06/12 03:58:32;;;;;;;;;23.33;19.00;;;;;;;;4954088;28;28438;-81
2023/06/12 04:00:57;;;;;;;;;23.75;19.75;;;;;;;;4950815;28;45011;-80
2023/06/12 04:03:24;;;;;;;;;19.25;18.50;;;;;;;;4953814;28;28411;-82
2023/06/12 04:05:49;;;;;;;;;18.00;15.75;;;;;;;;4971354;28;28463;-82
2023/06/12 04:08:14;;;;;;;;;20.75;18.00;;;;;;;;4972090;28;39664;-82
2023/06/12 04:10:40;;;;;;;;;16.50;14.00;;;;;;;;4968981;28;47788;-81
2023/06/12 04:13:05;;;;;;;;;18.25;18.25;;;;;;;;3960668;28;29486459;-80
2023/06/12 04:15:31;;;;;;;;;21.25;18.50;;;;;;;;4973226;28;28403;-79
2023/06/12 04:18:46;;;;;;;;;;;;;;;;;;3056037;28;106466280;-80
2023/06/12 04:22:41;;;;;;;;;22.50;19.50;;;;;;;;3424964;28;134736258;-79
2023/06/12 04:25:08;;;;;;;;;13.25;13.25;;;;;;;;4712803;28;7508262;-81
2023/06/12 04:27:34;;;;;;;;;16.50;15.75;;;;;;;;4897558;28;2185623;-81
2023/06/12 04:29:59;;;;;;;;;12.75;11.50;;;;;;;;4804571;28;4335185;-80
2023/06/12 04:36:33;;;;;;;;;;;;;;;;;;1888058;28;279081601;-78
2023/06/12 04:38:59;;;;;;;;;14.00;14.00;;;;;;;;4970276;28;28488;-78
2023/06/12 04:41:27;;;;;;;;;17.50;15.50;;;;;;;;4969266;28;27936;-79
2023/06/12 04:43:58;;;;;;;;;9.25;8.50;;;;;;;;4142326;28;23699396;-78
2023/06/12 04:46:24;;;;;;;;;22.67;18.67;;;;;;;;3691400;28;36926413;-80
2023/06/12 04:48:49;;;;;;;;;19.00;17.00;;;;;;;;3748305;28;35322833;-80
2023/06/12 04:59:48;;;;;;;;;21.00;19.00;;;;;;;;4653340;28;243069557;-82
2023/06/12 05:08:04;;;;;;;;;;;;;;;;;;2;261076267;261076267;-81
2023/06/12 05:16:46;;;;;;;;;16.50;16.50;;;;;;;;2;243072672;243072672;-77
2023/06/12 05:25:03;;;;;;;;;11.50;11.50;;;;;;;;2;261078421;261078421;-77
2023/06/12 05:27:28;;;;;;;;;8.50;7.50;;;;;;;;3101927;28;54422305;-76
2023/06/12 05:29:53;;;;;;;;;10.25;9.25;;;;;;;;4971917;28;28468;-78
2023/06/12 05:32:19;;;;;;;;;10.25;9.50;;;;;;;;4972260;28;28406;-79
2023/06/12 05:34:44;;;;;;;;;9.00;9.00;;;;;;;;4970235;28;28437;-80
2023/06/12 05:37:09;;;;;;;;;9.75;9.75;;;;;;;;4971705;28;28385;-80
2023/06/12 05:39:34;;;;;;;;;12.25;10.25;;;;;;;;4791934;28;5246754;-80
2023/06/12 05:42:00;;;;;;;;;15.50;13.75;;;;;;;;4971481;28;28706;-79
2023/06/12 05:44:25;;;;;;;;;13.25;11.75;;;;;;;;3801038;28;34158522;-81
2023/06/12 05:46:52;;;;;;;;;11.50;11.50;;;;;;;;4973217;28;28467;-81
2023/06/12 05:49:17;;;;;;;;;13.75;13.75;;;;;;;;4970849;28;28480;-82
2023/06/12 05:51:43;;;;;;;;;18.25;14.50;;;;;;;;4535502;28;12709757;-81
2023/06/12 05:54:08;;;;;;;;;11.00;9.50;;;;;;;;4974478;28;28325;-81
2023/06/12 05:56:33;;;;;;;;;12.50;11.50;;;;;;;;4973409;28;28405;-82
2023/06/12 06:00:06;;;;;;;;;12.00;12.00;;;;;;;;3339507;28;71566698;-82
2023/06/12 06:02:32;;;;;;;;;10.00;9.25;;;;;;;;4953181;28;28559;-80
2023/06/12 06:04:57;;;;;;;;;12.75;12.75;;;;;;;;4952317;28;28486;-79
2023/06/12 06:07:22;;;;;;;;;11.75;11.25;;;;;;;;4954149;28;28619;-83
2023/06/12 06:09:48;;;;;;;;;12.50;11.50;;;;;;;;4960599;28;28446;-81
2023/06/12 06:12:13;;;;;;;;;12.75;11.75;;;;;;;;4955146;28;28469;-82
2023/06/12 06:14:38;;;;;;;;;15.00;11.75;;;;;;;;4955705;28;28448;-82
2023/06/12 06:17:03;;;;;;;;;15.50;14.50;;;;;;;;4965533;28;28411;-79
2023/06/12 06:19:29;;;;;;;;;13.75;11.75;;;;;;;;4701264;28;7323368;-78
2023/06/12 06:21:54;;;;;;;;;13.25;12.50;;;;;;;;4953898;28;29609;-80
2023/06/12 06:24:19;;;;;;;;;13.50;13.25;;;;;;;;4970683;28;28521;-75
2023/06/12 06:26:45;;;;;;;;;14.75;14.00;;;;;;;;4957284;28;28705;-75
2023/06/12 06:29:10;;;;;;;;;17.25;17.25;;;;;;;;4966323;28;28575;-76
2023/06/12 06:31:35;;;;;;;;;13.75;13.50;;;;;;;;4966189;28;28777;-75
2023/06/12 06:34:00;;;;;;;;;17.25;14.75;;;;;;;;4963513;28;28584;-75
2023/06/12 06:36:26;;;;;;;;;14.50;13.00;;;;;;;;4430896;28;15407304;-76
2023/06/12 06:38:52;;;;;;;;;13.00;11.75;;;;;;;;4966530;28;28264;-74
2023/06/12 06:41:17;;;;;;;;;12.50;10.75;;;;;;;;4919538;28;1010615;-75
2023/06/12 06:43:42;;;;;;;;;13.50;12.00;;;;;;;;2319194;28;77121608;-74
2023/06/12 06:46:07;;;;;;;;;12.75;11.75;;;;;;;;4934550;28;977782;-74
2023/06/12 06:48:33;;;;;;;;;10.25;9.50;;;;;;;;4965127;28;28905;-75
2023/06/12 06:50:58;;;;;;;;;15.75;12.00;;;;;;;;4969661;28;28516;-75
2023/06/12 06:53:23;;;;;;;;;14.75;12.25;;;;;;;;4953975;28;28584;-76
2023/06/12 06:55:48;;;;;;;;;15.25;11.75;;;;;;;;4966897;28;28444;-74
2023/06/12 06:58:14;;;;;;;;;9.50;9.50;;;;;;;;4961218;28;28468;-75
2023/06/12 07:00:39;;;;;;;;;18.25;14.75;;;;;;;;4962414;28;28543;-74
2023/06/12 07:03:04;;;;;;;;;15.50;14.00;;;;;;;;4957407;28;28453;-76
2023/06/12 07:05:30;;;;;;;;;15.33;13.33;;;;;;;;4871410;28;2977447;-75
2023/06/12 07:07:55;;;;;;;;;12.75;12.50;;;;;;;;4936197;28;1040119;-75
2023/06/12 07:10:21;;;;;;;;;11.50;11.50;;;;;;;;4963048;28;28457;-75
2023/06/12 07:12:46;;;;;;;;;14.25;13.50;;;;;;;;4967305;28;28452;-74
2023/06/12 07:15:11;;;;;;;;;12.75;12.75;;;;;;;;4963613;28;28662;-75
2023/06/12 07:17:36;;;;;;;;;10.75;9.50;;;;;;;;4971819;28;28506;-75
2023/06/12 07:20:04;;;;;;;;;14.50;14.50;;;;;;;;4968455;28;28512;-74
2023/06/12 07:22:30;;;;;;;;;11.25;10.25;;;;;;;;4966826;28;28507;-74
2023/06/12 07:24:55;;;;;;;;;12.75;12.75;;;;;;;;4958817;28;29029;-74
2023/06/12 07:27:21;;;;;;;;;11.75;10.00;;;;;;;;4968128;28;28572;-74
2023/06/12 07:29:46;;;;;;;;;12.25;12.00;;;;;;;;4961504;28;28484;-74
2023/06/12 07:32:11;;;;;;;;;13.75;11.00;;;;;;;;4962032;28;28464;-75
2023/06/12 07:34:36;;;;;;;;;10.50;10.50;;;;;;;;4961945;28;28527;-75
2023/06/12 07:37:02;;;;;;;;;12.50;12.00;;;;;;;;4957993;28;28500;-76
2023/06/12 07:39:27;;;;;;;;;12.00;12.00;;;;;;;;4969991;28;28424;-75
2023/06/12 07:41:52;;;;;;;;;15.00;12.00;;;;;;;;4961818;28;28595;-75
2023/06/12 07:44:18;;;;;;;;;15.00;12.50;;;;;;;;4962514;28;28981;-75
2023/06/12 07:46:43;;;;;;;;;10.75;10.00;;;;;;;;4965597;28;28566;-74
2023/06/12 07:49:09;;;;;;;;;10.50;9.25;;;;;;;;4956066;28;27829;-76
2023/06/12 07:51:34;;;;;;;;;14.25;12.50;;;;;;;;4968983;28;28251;-75
2023/06/12 07:53:59;;;;;;;;;15.75;13.00;;;;;;;;4961495;28;28478;-74
2023/06/12 07:56:25;;;;;;;;;8.00;8.00;;;;;;;;4960251;28;28430;-75
2023/06/12 07:58:50;;;;;;;;;12.25;12.25;;;;;;;;4957621;28;28460;-75
2023/06/12 08:01:16;;;;;;;;;7.25;6.75;;;;;;;;4969724;28;28393;-75
2023/06/12 08:03:42;;;;;;;;;11.50;10.75;;;;;;;;4968030;28;28732;-75
2023/06/12 08:06:09;;;;;;;;;11.50;11.50;;;;;;;;4960270;28;28527;-74
2023/06/12 08:08:44;;;;;;;;;12.50;12.50;;;;;;;;4964657;28;28519;-75
2023/06/12 08:11:09;;;;;;;;;12.75;12.25;;;;;;;;4955725;28;27976;-75
2023/06/12 08:13:34;;;;;;;;;10.50;10.50;;;;;;;;4968834;28;28422;-75
2023/06/12 08:16:00;;;;;;;;;9.50;9.50;;;;;;;;4959470;28;28476;-75
2023/06/12 08:18:25;;;;;;;;;8.75;8.75;;;;;;;;4961645;28;28428;-75
2023/06/12 08:20:50;;;;;;;;;13.25;11.00;;;;;;;;4966265;28;28462;-75
2023/06/12 08:23:16;;;;;;;;;14.00;13.00;;;;;;;;4955375;28;29673;-75
2023/06/12 08:25:41;;;;;;;;;15.75;14.00;;;;;;;;4976639;28;28515;-75
2023/06/12 08:28:06;;;;;;;;;13.50;11.75;;;;;;;;4946805;28;28483;-74
2023/06/12 08:30:31;;;;;;;;;9.25;9.25;;;;;;;;4960683;28;28637;-74
2023/06/12 08:32:57;;;;;;;;;9.75;9.75;;;;;;;;4957163;28;29181;-75
2023/06/12 08:35:22;;;;;;;;;9.00;8.75;;;;;;;;4968822;28;28561;-74
2023/06/12 08:37:47;;;;;;;;;12.50;11.00;;;;;;;;4956821;28;28426;-74
2023/06/12 08:40:12;;;;;;;;;10.50;10.50;;;;;;;;4967807;28;28551;-74
2023/06/12 08:42:38;;;;;;;;;13.25;8.75;;;;;;;;4966920;28;28609;-73
2023/06/12 08:45:07;;;;;;;;;11.00;11.00;;;;;;;;4965550;28;29291;-74
2023/06/12 08:47:35;;;;;;;;;12.75;11.75;;;;;;;;4964902;28;29065;-73
2023/06/12 08:50:00;;;;;;;;;13.25;11.25;;;;;;;;4966558;28;28614;-73
2023/06/12 08:52:26;;;;;;;;;12.75;12.75;;;;;;;;4908386;28;1702014;-75
2023/06/12 08:54:51;;;;;;;;;9.75;9.75;;;;;;;;4971809;28;28480;-74
2023/06/12 08:57:18;;;;;;;;;13.25;11.50;;;;;;;;4954841;28;471771;-74
2023/06/12 08:59:44;;;;;;;;;15.75;13.25;;;;;;;;4961155;28;28579;-74
2023/06/12 09:02:10;;;;;;;;;15.75;12.00;;;;;;;;4962438;28;29161;-75
2023/06/12 09:04:42;;;;;;;;;12.75;11.00;;;;;;;;4963398;28;28526;-76
2023/06/12 09:07:08;;;;;;;;;12.00;12.00;;;;;;;;4954858;28;45341;-76
2023/06/12 09:09:39;;;;;;;;;13.25;10.00;;;;;;;;4971710;28;28651;-75
2023/06/12 09:12:07;;;;;;;;;13.00;12.50;;;;;;;;4963428;28;28484;-76
2023/06/12 09:14:34;;;;;;;;;15.50;14.50;;;;;;;;4962005;28;42392;-76
2023/06/12 09:17:00;;;;;;;;;15.00;12.25;;;;;;;;4970051;28;28583;-76
2023/06/12 09:19:25;;;;;;;;;11.50;11.25;;;;;;;;4954105;28;43164;-76
2023/06/12 09:21:50;;;;;;;;;15.00;15.00;;;;;;;;4959134;28;47042;-75
2023/06/12 09:24:16;;;;;;;;;14.75;14.25;;;;;;;;4852647;28;3153551;-74
2023/06/12 09:26:44;;;;;;;;;14.00;12.75;;;;;;;;4957360;28;32720;-73
2023/06/12 09:29:10;;;;;;;;;14.50;14.25;;;;;;;;4964250;28;44108;-71
2023/06/12 09:31:35;;;;;;;;;16.75;15.00;;;;;;;;4967413;28;47082;-73
2023/06/12 09:34:00;;;;;;;;;15.75;15.00;;;;;;;;4963660;28;28555;-73
2023/06/12 09:36:26;;;;;;;;;16.50;15.00;;;;;;;;4905929;28;1675113;-73
2023/06/12 09:38:52;;;;;;;;;15.75;15.25;;;;;;;;4957612;28;28421;-72
2023/06/12 09:41:21;;;;;;;;;13.25;11.00;;;;;;;;4968379;28;28487;-74
2023/06/12 09:43:46;;;;;;;;;15.50;14.75;;;;;;;;4964785;28;28361;-74
2023/06/12 09:46:11;;;;;;;;;14.50;12.75;;;;;;;;4962548;28;28393;-74
2023/06/12 09:48:40;;;;;;;;;17.50;17.50;;;;;;;;4964017;28;28401;-73
2023/06/12 09:51:06;;;;;;;;;16.75;14.00;;;;;;;;4955301;28;28486;-73
2023/06/12 09:54:06;;;;;;;;;;;;;;;;;;1715508;28;129682167;-74
2023/06/12 09:56:32;;;;;;;;;16.00;14.00;;;;;;;;4960282;28;28528;-74
2023/06/12 09:58:58;;;;;;;;;14.50;13.50;;;;;;;;4955436;28;29467;-74
2023/06/12 10:01:25;;;;;;;;;19.75;17.00;;;;;;;;4967248;28;28476;-76
2023/06/12 10:03:53;;;;;;;;;15.25;15.00;;;;;;;;4956904;28;41009;-75
2023/06/12 10:06:18;;;;;;;;;16.00;13.50;;;;;;;;4968423;28;37125;-74
2023/06/12 10:08:44;;;;;;;;;17.75;15.75;;;;;;;;4958413;28;28409;-73
2023/06/12 10:11:10;;;;;;;;;15.50;14.25;;;;;;;;4967142;28;42395;-74
2023/06/12 10:13:35;;;;;;;;;21.75;17.25;;;;;;;;4960254;28;46040;-74
2023/06/12 10:16:01;;;;;;;;;16.75;16.00;;;;;;;;4958332;28;28579;-74
2023/06/12 10:18:28;;;;;;;;;17.50;17.50;;;;;;;;4960512;28;28498;-74
2023/06/12 10:20:53;;;;;;;;;19.50;16.00;;;;;;;;4965418;28;28417;-74
2023/06/12 10:23:19;;;;;;;;;18.00;16.00;;;;;;;;4954360;28;29558;-74
2023/06/12 10:25:45;;;;;;;;;20.50;19.50;;;;;;;;4970408;28;28396;-73
2023/06/12 10:28:11;;;;;;;;;15.50;15.25;;;;;;;;4964517;28;28278;-74
2023/06/12 10:30:36;;;;;;;;;17.50;16.50;;;;;;;;4970765;28;28345;-74
2023/06/12 10:33:14;;;;;;;;;16.50;14.75;;;;;;;;4965927;28;28571;-73
2023/06/12 10:35:39;;;;;;;;;19.75;17.75;;;;;;;;4958975;28;28517;-73
2023/06/12 10:38:04;;;;;;;;;20.75;18.25;;;;;;;;4966668;28;28477;-75
2023/06/12 10:40:30;;;;;;;;;15.25;15.25;;;;;;;;4965872;28;28420;-74
2023/06/12 10:43:03;;;;;;;;;14.50;14.50;;;;;;;;4971589;28;28563;-74
2023/06/12 10:45:33;;;;;;;;;19.00;18.50;;;;;;;;4967889;28;28528;-74
2023/06/12 10:48:07;;;;;;;;;19.25;18.25;;;;;;;;4957761;28;28563;-74
2023/06/12 10:50:32;;;;;;;;;20.50;19.50;;;;;;;;4962585;28;28629;-74
2023/06/12 10:53:00;;;;;;;;;18.75;18.00;;;;;;;;4969426;28;28430;-73
2023/06/12 10:55:31;;;;;;;;;25.00;20.50;;;;;;;;4962023;28;28359;-73
2023/06/12 10:57:57;;;;;;;;;17.75;16.50;;;;;;;;4967843;28;28601;-72
2023/06/12 11:00:43;;;;;;;;;23.75;21.75;;;;;;;;4965162;28;41938;-74
2023/06/12 11:03:12;;;;;;;;;20.00;17.75;;;;;;;;4963788;28;43346;-76
2023/06/12 11:05:38;;;;;;;;;21.50;20.00;;;;;;;;4967779;28;28539;-75
2023/06/12 11:08:04;;;;;;;;;21.25;19.75;;;;;;;;4961413;28;28369;-74
2023/06/12 11:10:30;;;;;;;;;22.00;20.50;;;;;;;;4961447;28;28674;-73
2023/06/12 11:12:56;;;;;;;;;21.50;18.25;;;;;;;;4963173;28;29638;-72
2023/06/12 11:15:21;;;;;;;;;23.00;19.00;;;;;;;;4965407;28;28487;-73
2023/06/12 11:17:47;;;;;;;;;24.00;20.00;;;;;;;;4965517;28;28544;-74
2023/06/12 11:20:14;;;;;;;;;25.00;20.50;;;;;;;;4962573;28;28407;-72
2023/06/12 11:22:39;;;;;;;;;21.75;20.50;;;;;;;;4965047;28;28501;-73
2023/06/12 11:25:05;;;;;;;;;26.50;25.50;;;;;;;;4953238;28;28737;-71
2023/06/12 11:27:31;;;;;;;;;21.75;21.25;;;;;;;;4968897;28;28419;-72
2023/06/12 11:30:16;;;;;;;;;18.50;18.50;;;;;;;;4969634;28;28500;-71
2023/06/12 11:32:42;;;;;;;;;26.25;23.00;;;;;;;;4972436;28;29543;-74
2023/06/12 11:35:09;;;;;;;;;24.75;23.00;;;;;;;;4960265;28;28517;-72
2023/06/12 11:37:35;;;;;;;;;20.75;20.75;;;;;;;;4968732;28;28743;-72
2023/06/12 11:40:00;;;;;;;;;25.50;24.50;;;;;;;;4956716;28;28520;-72
2023/06/12 11:42:25;;;;;;;;;29.25;25.75;;;;;;;;4969132;28;28515;-72
2023/06/12 11:44:51;;;;;;;;;26.00;24.50;;;;;;;;4961437;28;29980;-74
2023/06/12 11:47:18;;;;;;;;;25.00;23.50;;;;;;;;4966313;28;28525;-74
2023/06/12 11:49:43;;;;;;;;;24.25;23.00;;;;;;;;4957019;28;28588;-70
2023/06/12 11:52:08;;;;;;;;;21.00;21.00;;;;;;;;4968750;28;28467;-70
2023/06/12 11:54:52;;;;;;;;;21.50;19.00;;;;;;;;4961167;28;28458;-71
2023/06/12 11:57:17;;;;;;;;;26.50;26.25;;;;;;;;4971638;28;28535;-72
2023/06/12 11:59:45;;;;;;;;;29.75;23.75;;;;;;;;4956675;28;28338;-72
2023/06/12 12:02:10;;;;;;;;;23.75;22.00;;;;;;;;4967175;28;29259;-75
2023/06/12 12:04:37;;;;;;;;;27.25;26.25;;;;;;;;4959772;28;28523;-74
2023/06/12 12:07:03;;;;;;;;;28.25;26.00;;;;;;;;4961138;28;27873;-72
2023/06/12 12:09:28;;;;;;;;;19.75;19.75;;;;;;;;4966878;28;28639;-71
2023/06/12 12:11:53;;;;;;;;;28.25;23.50;;;;;;;;4956412;28;29643;-69
2023/06/12 12:14:19;;;;;;;;;26.00;25.00;;;;;;;;4967526;28;28507;-70
2023/06/12 12:16:44;;;;;;;;;24.25;23.75;;;;;;;;4962085;28;28662;-72
2023/06/12 12:19:26;;;;;;;;;41.00;36.50;;;;;;;;3687632;28;37267930;-72
2023/06/12 12:21:51;;;;;;;;;26.25;25.00;;;;;;;;4968680;28;28333;-75
2023/06/12 12:24:16;;;;;;;;;19.75;19.75;;;;;;;;4957929;28;28517;-74
2023/06/12 12:28:15;;;;;;;;;;;;;;;;;;1544267;28;193744332;-72
2023/06/12 12:30:40;;;;;;;;;22.00;20.00;;;;;;;;4968968;28;28462;-73
2023/06/12 12:33:06;;;;;;;;;21.00;20.25;;;;;;;;4960137;28;28539;-73
2023/06/12 12:35:31;;;;;;;;;25.00;24.75;;;;;;;;4966278;28;44670;-72
2023/06/12 12:37:56;;;;;;;;;21.00;20.75;;;;;;;;4968575;28;45373;-73
2023/06/12 12:40:23;;;;;;;;;23.25;21.25;;;;;;;;4952312;28;45360;-72
2023/06/12 12:42:49;;;;;;;;;26.75;23.00;;;;;;;;4962408;28;28448;-72
2023/06/12 12:45:16;;;;;;;;;25.50;22.00;;;;;;;;4965671;28;28401;-74
2023/06/12 12:47:44;;;;;;;;;32.75;31.25;;;;;;;;4956056;28;28560;-74
2023/06/12 12:50:10;;;;;;;;;29.50;29.00;;;;;;;;4970060;28;28463;-73
2023/06/12 12:52:35;;;;;;;;;21.25;21.25;;;;;;;;4966914;28;28572;-70
2023/06/12 12:55:04;;;;;;;;;23.75;21.50;;;;;;;;4974517;28;136775;-72
2023/06/12 12:57:33;;;;;;;;;25.25;24.00;;;;;;;;4962153;28;28347;-72
2023/06/12 12:59:59;;;;;;;;;25.75;25.00;;;;;;;;4974275;28;28271;-72
2023/06/12 13:02:24;;;;;;;;;21.75;19.00;;;;;;;;4964231;28;28689;-72
2023/06/12 13:04:50;;;;;;;;;24.50;23.00;;;;;;;;4968407;28;28510;-72
2023/06/12 13:07:15;;;;;;;;;22.75;20.50;;;;;;;;4970745;28;28413;-72
2023/06/12 13:09:40;;;;;;;;;18.75;17.00;;;;;;;;4961134;28;28508;-72
2023/06/12 13:12:06;;;;;;;;;23.50;23.25;;;;;;;;4973607;28;28452;-72
2023/06/12 13:14:32;;;;;;;;;18.25;18.25;;;;;;;;4962707;28;28510;-72
2023/06/12 13:16:57;;;;;;;;;24.00;22.00;;;;;;;;4961248;28;28424;-72
2023/06/12 13:19:22;;;;;;;;;24.00;22.25;;;;;;;;4966361;28;28539;-73
2023/06/12 13:21:47;;;;;;;;;21.50;21.50;;;;;;;;4955362;28;29447;-72
2023/06/12 13:24:13;;;;;;;;;20.75;19.00;;;;;;;;4965268;28;28527;-72
2023/06/12 13:26:38;;;;;;;;;22.00;18.75;;;;;;;;4963776;28;28543;-72
2023/06/12 13:29:03;;;;;;;;;18.25;18.25;;;;;;;;4964768;28;28481;-71
2023/06/12 13:31:29;;;;;;;;;18.25;18.25;;;;;;;;4955787;28;28831;-72
2023/06/12 13:33:54;;;;;;;;;22.25;21.00;;;;;;;;4965756;28;28420;-72
2023/06/12 13:36:20;;;;;;;;;13.50;13.50;;;;;;;;4957825;28;28464;-72
2023/06/12 13:38:46;;;;;;;;;19.50;17.75;;;;;;;;4962919;28;28557;-73
2023/06/12 13:41:12;;;;;;;;;16.25;16.25;;;;;;;;4964273;28;28589;-72
2023/06/12 13:43:37;;;;;;;;;20.75;19.75;;;;;;;;4967844;28;28444;-71
2023/06/12 13:46:02;;;;;;;;;31.50;29.75;;;;;;;;4559833;28;11546322;-71
2023/06/12 13:48:28;;;;;;;;;19.75;19.75;;;;;;;;4964252;28;28437;-72
2023/06/12 13:50:53;;;;;;;;;16.75;16.75;;;;;;;;4961635;28;28454;-72
2023/06/12 13:53:19;;;;;;;;;20.00;19.00;;;;;;;;4944928;28;332890;-71
2023/06/12 13:55:44;;;;;;;;;18.25;18.25;;;;;;;;4954030;28;45465;-73
2023/06/12 13:58:09;;;;;;;;;18.00;18.00;;;;;;;;4947575;28;46385;-74
2023/06/12 14:00:35;;;;;;;;;20.00;19.50;;;;;;;;4955521;28;45168;-74
2023/06/12 14:03:00;;;;;;;;;22.25;20.50;;;;;;;;4957650;28;45200;-74
2023/06/12 14:05:25;;;;;;;;;14.00;12.25;;;;;;;;4952927;28;45232;-74
2023/06/12 14:07:51;;;;;;;;;17.00;17.00;;;;;;;;4948302;28;45385;-74
2023/06/12 14:10:16;;;;;;;;;15.50;15.50;;;;;;;;4945894;28;45410;-75
2023/06/12 14:12:41;;;;;;;;;13.25;13.25;;;;;;;;4944115;28;46216;-75
2023/06/12 14:15:06;;;;;;;;;19.75;19.50;;;;;;;;4940442;28;45334;-75
2023/06/12 14:17:32;;;;;;;;;16.75;15.50;;;;;;;;4948960;28;45712;-75
2023/06/12 14:19:58;;;;;;;;;16.00;15.25;;;;;;;;4954428;28;45514;-75
2023/06/12 14:22:23;;;;;;;;;20.50;17.25;;;;;;;;4956152;28;47300;-74
2023/06/12 14:24:49;;;;;;;;;10.50;10.50;;;;;;;;4953735;28;46370;-73
2023/06/12 14:27:14;;;;;;;;;16.50;14.50;;;;;;;;4956262;28;44712;-73
2023/06/12 14:29:40;;;;;;;;;15.25;15.25;;;;;;;;4958763;28;28542;-75
2023/06/12 14:32:05;;;;;;;;;11.75;11.75;;;;;;;;4956202;28;45496;-75
2023/06/12 14:34:30;;;;;;;;;12.50;11.25;;;;;;;;4963089;28;45390;-73
2023/06/12 14:36:55;;;;;;;;;15.75;15.00;;;;;;;;4953417;28;45545;-74
2023/06/12 14:39:21;;;;;;;;;14.50;13.25;;;;;;;;4954791;28;45418;-73
2023/06/12 14:41:46;;;;;;;;;15.50;14.50;;;;;;;;4947963;28;46234;-74
2023/06/12 14:44:11;;;;;;;;;14.00;12.50;;;;;;;;4940000;28;45436;-74
2023/06/12 14:46:36;;;;;;;;;14.25;12.00;;;;;;;;4947228;28;45420;-74
2023/06/12 14:49:01;;;;;;;;;16.25;14.50;;;;;;;;4943848;28;45720;-76
2023/06/12 14:51:27;;;;;;;;;14.25;14.25;;;;;;;;4953742;28;46635;-76
2023/06/12 14:53:52;;;;;;;;;11.50;11.50;;;;;;;;4940445;28;45413;-78
2023/06/12 14:56:17;;;;;;;;;12.75;12.75;;;;;;;;4948651;28;45495;-74
2023/06/12 14:58:42;;;;;;;;;16.00;15.00;;;;;;;;4949282;28;45545;-75
2023/06/12 15:01:07;;;;;;;;;15.25;10.75;;;;;;;;4945983;28;46616;-74
2023/06/12 15:03:33;;;;;;;;;13.50;12.75;;;;;;;;4951826;28;45465;-74
2023/06/12 15:05:58;;;;;;;;;18.00;16.75;;;;;;;;4944201;28;45600;-73
2023/06/12 15:08:23;;;;;;;;;14.00;14.00;;;;;;;;4945748;28;45880;-73
2023/06/12 15:10:49;;;;;;;;;15.50;14.50;;;;;;;;4943259;28;46590;-73
2023/06/12 15:13:15;;;;;;;;;13.75;13.75;;;;;;;;4947853;28;46384;-75
2023/06/12 15:15:40;;;;;;;;;15.25;14.25;;;;;;;;4948363;28;45287;-74
2023/06/12 15:18:05;;;;;;;;;12.25;12.25;;;;;;;;4944635;28;46597;-74
2023/06/12 15:20:30;;;;;;;;;18.75;16.75;;;;;;;;4947407;28;46639;-76
2023/06/12 15:22:56;;;;;;;;;16.75;16.50;;;;;;;;4948262;28;45627;-73
2023/06/12 15:25:21;;;;;;;;;14.75;14.75;;;;;;;;4951292;28;45465;-73
2023/06/12 15:27:47;;;;;;;;;11.50;11.00;;;;;;;;4948950;28;45609;-73
2023/06/12 15:30:12;;;;;;;;;15.75;15.25;;;;;;;;4949850;28;47308;-73
2023/06/12 15:32:37;;;;;;;;;16.50;15.25;;;;;;;;4948025;28;45492;-73
2023/06/12 15:35:03;;;;;;;;;16.75;16.75;;;;;;;;4953568;28;45588;-73
2023/06/12 15:37:28;;;;;;;;;15.75;15.00;;;;;;;;4954845;28;45848;-74
2023/06/12 15:39:53;;;;;;;;;17.50;16.50;;;;;;;;4953916;28;45511;-73
2023/06/12 15:42:19;;;;;;;;;14.75;14.75;;;;;;;;4949173;28;45488;-74
2023/06/12 15:44:47;;;;;;;;;15.50;15.50;;;;;;;;4947378;28;45455;-74
2023/06/12 15:47:12;;;;;;;;;18.50;16.25;;;;;;;;4954376;28;45645;-73
2023/06/12 15:49:38;;;;;;;;;16.75;16.75;;;;;;;;4942610;28;46561;-74
2023/06/12 15:52:04;;;;;;;;;17.50;16.00;;;;;;;;4943129;28;45613;-74
2023/06/12 15:54:30;;;;;;;;;15.50;13.75;;;;;;;;4944224;28;45462;-73
2023/06/12 15:56:55;;;;;;;;;19.25;18.25;;;;;;;;4947053;28;45560;-73
2023/06/12 15:59:21;;;;;;;;;17.00;17.00;;;;;;;;4947698;28;46115;-72
2023/06/12 16:01:46;;;;;;;;;18.00;16.75;;;;;;;;4942699;28;45299;-73
2023/06/12 16:04:13;;;;;;;;;12.50;12.50;;;;;;;;4948218;28;45986;-73
2023/06/12 16:06:39;;;;;;;;;17.50;17.50;;;;;;;;4954771;28;45574;-74